Time;durP1;ratioP1;P1;durP2;ratioP2;P2;SDS_P1;SDS_P2;PMS_P1;PMS_P2;Temp;Humidity;BMP_temperature;BMP_pressure;BME280_temperature;BME280_humidity;BME280_pressure;Samples;Min_cycle;Max_cycle;Signal;HPM_P1;HPM_P2
2022/05/01 00:01:49;;;;;;;0.40;0.30;;;;;;;15.07;100.00;95627.47;5114448;28;20524;-52
2022/05/01 00:04:18;;;;;;;0.50;0.40;;;;;;;14.69;100.00;95611.75;5115044;28;20489;-52
2022/05/01 00:06:46;;;;;;;0.40;0.40;;;;;;;15.00;100.00;95629.69;5114511;28;20467;-53
2022/05/01 00:09:16;;;;;;;0.40;0.30;;;;;;;15.12;100.00;95622.06;5114893;28;20458;-52
2022/05/01 00:11:44;;;;;;;0.60;0.40;;;;;;;15.11;100.00;95635.69;5114163;28;20464;-53
2022/05/01 00:14:13;;;;;;;0.40;0.30;;;;;;;14.87;100.00;95643.78;5113904;28;20979;-52
2022/05/01 00:16:41;;;;;;;0.40;0.40;;;;;;;14.49;100.00;95642.13;5114632;28;20451;-52
2022/05/01 00:19:10;;;;;;;0.40;0.40;;;;;;;14.77;100.00;95643.13;5114660;28;20457;-52
2022/05/01 00:21:39;;;;;;;0.40;0.27;;;;;;;15.02;100.00;95640.91;5113553;28;20899;-52
2022/05/01 00:24:08;;;;;;;0.40;0.40;;;;;;;15.22;100.00;95658.50;5114196;28;20476;-52
2022/05/01 00:26:38;;;;;;;0.40;0.30;;;;;;;15.18;100.00;95628.91;5114528;28;20860;-52
2022/05/01 00:29:07;;;;;;;0.60;0.40;;;;;;;15.21;100.00;95628.31;5114605;28;20427;-52
2022/05/01 00:31:35;;;;;;;0.43;0.40;;;;;;;15.26;100.00;95635.47;5114084;28;20584;-52
2022/05/01 00:36:50;;;;;;;0.50;0.30;;;;;;;14.81;100.00;95646.78;5114210;28;20455;-52
2022/05/01 00:39:18;;;;;;;0.40;0.30;;;;;;;14.38;100.00;95646.00;5113946;28;20467;-52
2022/05/01 00:41:48;;;;;;;0.50;0.30;;;;;;;13.95;100.00;95639.78;5113830;28;20461;-52
2022/05/01 00:44:21;;;;;;;0.40;0.40;;;;;;;14.09;100.00;95648.69;5113869;28;20506;-52
2022/05/01 00:46:51;;;;;;;0.40;0.30;;;;;;;14.39;100.00;95632.41;5114114;28;20447;-52
2022/05/01 00:49:22;;;;;;;0.40;0.30;;;;;;;14.66;100.00;95629.13;5113558;28;20419;-52
2022/05/01 00:51:54;;;;;;;0.60;0.50;;;;;;;14.75;100.00;95634.63;5113642;28;21047;-52
2022/05/01 00:54:24;;;;;;;0.73;0.33;;;;;;;14.86;100.00;95631.50;5113704;28;20424;-52
2022/05/01 00:56:55;;;;;;;0.50;0.40;;;;;;;14.70;100.00;95638.13;5112597;28;20467;-52
2022/05/01 00:59:24;;;;;;;0.40;0.30;;;;;;;13.81;100.00;95541.06;5113922;28;20422;-51
2022/05/01 01:01:54;;;;;;;0.70;0.60;;;;;;;14.76;100.00;95642.31;5113302;28;20463;-52
2022/05/01 01:04:23;;;;;;;1.00;1.00;;;;;;;14.81;100.00;95628.91;5112691;28;20534;-52
2022/05/01 01:06:51;;;;;;;0.40;0.30;;;;;;;14.46;100.00;95632.03;5113215;28;20423;-53
2022/05/01 01:09:20;;;;;;;0.40;0.30;;;;;;;14.71;100.00;95634.38;5113814;28;20466;-53
2022/05/01 01:12:53;;;;;;;0.50;0.40;;;;;;;15.03;100.00;95631.00;5113548;28;21050;-53
2022/05/01 01:14:41;;;;;;;0.40;0.20;;;;;;;15.20;100.00;95632.06;5112544;28;20467;-53
2022/05/01 01:17:10;;;;;;;0.60;0.53;;;;;;;15.16;100.00;95615.06;5113589;28;20508;-53
2022/05/01 01:19:39;;;;;;;0.40;0.30;;;;;;;15.27;100.00;95629.84;5113672;28;20427;-53
2022/05/01 01:22:10;;;;;;;0.50;0.50;;;;;;;15.33;100.00;95635.09;5113389;28;20498;-53
2022/05/01 01:24:43;;;;;;;0.43;0.43;;;;;;;14.44;100.00;95498.19;5113032;28;20995;-53
2022/05/01 01:27:13;;;;;;;0.50;0.30;;;;;;;14.82;100.00;95622.50;5113123;28;20486;-52
2022/05/01 01:32:29;;;;;;;0.60;0.57;;;;;;;13.94;100.00;95627.50;5112832;28;20482;-52
2022/05/01 01:35:00;;;;;;;0.40;0.33;;;;;;;13.83;100.00;95624.19;5112836;28;20464;-51
2022/05/01 01:37:32;;;;;;;0.70;0.70;;;;;;;13.65;100.00;95626.75;5112560;28;20556;-52
2022/05/01 01:40:00;;;;;;;0.40;0.20;;;;;;;13.82;100.00;95617.25;5112640;28;20971;-51
2022/05/01 01:42:31;;;;;;;0.53;0.50;;;;;;;14.28;100.00;95622.88;5112758;28;20470;-51
2022/05/01 01:45:01;;;;;;;0.50;0.43;;;;;;;14.18;100.00;95593.69;5112008;28;21003;-52
2022/05/01 01:47:29;;;;;;;0.50;0.40;;;;;;;13.99;100.00;95616.78;5112117;28;20451;-52
2022/05/01 01:49:58;;;;;;;0.70;0.70;;;;;;;13.61;100.00;95607.84;5111870;28;20926;-53
2022/05/01 01:52:26;;;;;;;0.40;0.30;;;;;;;13.81;100.00;95605.00;5111669;28;21019;-52
2022/05/01 01:54:56;;;;;;;0.40;0.30;;;;;;;13.88;100.00;95616.13;5111956;28;20455;-51
2022/05/01 01:57:24;;;;;;;0.40;0.30;;;;;;;13.84;100.00;95620.41;5111977;28;20518;-52
2022/05/01 01:59:52;;;;;;;0.50;0.47;;;;;;;14.37;100.00;95618.53;5111583;28;20485;-52
2022/05/01 02:02:21;;;;;;;1.03;0.40;;;;;;;14.52;100.00;95614.91;5111823;28;20531;-52
2022/05/01 02:04:49;;;;;;;0.40;0.27;;;;;;;14.67;100.00;95612.03;5111936;28;20427;-52
2022/05/01 02:07:18;;;;;;;0.40;0.30;;;;;;;14.58;100.00;95614.53;5111953;28;20443;-52
2022/05/01 02:09:47;;;;;;;2.43;0.70;;;;;;;14.84;100.00;95609.66;5111518;28;20522;-52
2022/05/01 02:12:19;;;;;;;0.53;0.53;;;;;;;15.02;100.00;95611.53;5111514;28;20550;-52
2022/05/01 02:14:48;;;;;;;0.40;0.20;;;;;;;14.83;100.00;95589.38;5111728;28;20455;-53
2022/05/01 02:17:16;;;;;;;0.40;0.30;;;;;;;14.89;100.00;95614.13;5111466;28;20937;-53
2022/05/01 02:19:45;;;;;;;0.60;0.60;;;;;;;14.88;100.00;95612.53;5111672;28;20431;-53
2022/05/01 02:22:15;;;;;;;0.40;0.30;;;;;;;14.45;100.00;95622.44;5111515;28;20428;-53
2022/05/01 02:24:43;;;;;;;0.30;0.20;;;;;;;14.24;100.00;95615.75;5111290;28;20955;-52
2022/05/01 02:27:12;;;;;;;0.40;0.30;;;;;;;14.13;100.00;95616.94;5111324;28;20474;-52
2022/05/01 02:29:42;;;;;;;0.50;0.30;;;;;;;14.09;100.00;95615.91;5111445;28;20431;-52
2022/05/01 02:32:10;;;;;;;0.43;0.43;;;;;;;14.24;100.00;95613.06;5110963;28;20427;-52
2022/05/01 02:34:40;;;;;;;0.40;0.30;;;;;;;14.55;100.00;95614.31;5110712;28;20960;-52
2022/05/01 02:37:08;;;;;;;0.30;0.20;;;;;;;14.76;100.00;95604.16;5111114;28;20470;-52
2022/05/01 02:39:36;;;;;;;0.40;0.30;;;;;;;14.71;100.00;95612.25;5111201;28;20518;-52
2022/05/01 02:42:06;;;;;;;0.77;0.77;;;;;;;14.77;100.00;95611.91;5114151;28;20995;-52
2022/05/01 02:44:34;;;;;;;0.50;0.37;;;;;;;14.84;100.00;95612.34;5072205;28;1222906;-52
2022/05/01 02:47:05;;;;;;;0.47;0.47;;;;;;;14.96;100.00;95612.69;5116397;28;20254;-52
2022/05/01 02:49:35;;;;;;;0.80;0.80;;;;;;;15.01;100.00;95612.59;5115771;28;20502;-52
2022/05/01 02:52:04;;;;;;;0.40;0.20;;;;;;;14.71;100.00;95610.38;5116218;28;20505;-52
2022/05/01 02:54:32;;;;;;;0.30;0.20;;;;;;;14.69;100.00;95611.75;5115940;28;20507;-53
2022/05/01 02:57:01;;;;;;;0.43;0.43;;;;;;;14.43;100.00;95617.41;5116029;28;20435;-53
2022/05/01 02:59:29;;;;;;;0.73;0.73;;;;;;;14.30;100.00;95593.25;5116201;28;20455;-52
2022/05/01 03:01:58;;;;;;;0.47;0.40;;;;;;;13.63;100.00;95615.59;5115989;28;20526;-52
2022/05/01 03:04:28;;;;;;;0.40;0.30;;;;;;;13.50;100.00;95624.22;5115949;28;20423;-52
2022/05/01 03:06:57;;;;;;;0.50;0.50;;;;;;;13.43;100.00;95624.56;5116182;28;20423;-52
2022/05/01 03:09:26;;;;;;;0.40;0.30;;;;;;;13.72;100.00;95622.69;5116179;28;20492;-52
2022/05/01 03:11:54;;;;;;;0.40;0.20;;;;;;;13.97;100.00;95618.97;5115720;28;20428;-53
2022/05/01 03:14:22;;;;;;;0.50;0.50;;;;;;;13.95;100.00;95626.44;5115106;28;21047;-52
2022/05/01 03:16:51;;;;;;;0.40;0.30;;;;;;;14.10;100.00;95622.81;5115676;28;20519;-52
2022/05/01 03:22:13;;;;;;;0.40;0.30;;;;;;;14.28;100.00;95616.75;5089577;28;20427;-52
2022/05/01 03:24:43;;;;;;;0.40;0.30;;;;;;;14.25;100.00;95622.66;5115848;28;20494;-52
2022/05/01 03:27:11;;;;;;;0.40;0.30;;;;;;;14.46;100.00;95634.72;5115754;28;20512;-52
2022/05/01 03:29:40;;;;;;;0.40;0.20;;;;;;;14.58;100.00;95629.75;5115462;28;20506;-52
2022/05/01 03:32:09;;;;;;;0.40;0.30;;;;;;;14.21;100.00;95626.97;5115410;28;20438;-52
2022/05/01 03:34:39;;;;;;;0.40;0.30;;;;;;;14.11;100.00;95629.75;5115297;28;20471;-52
2022/05/01 03:37:09;;;;;;;0.40;0.30;;;;;;;14.49;100.00;95634.13;5115295;28;20470;-52
2022/05/01 03:39:38;;;;;;;0.40;0.20;;;;;;;14.57;100.00;95636.19;5115476;28;20459;-52
2022/05/01 03:42:07;;;;;;;0.40;0.30;;;;;;;14.71;100.00;95642.38;5115480;28;20507;-52
2022/05/01 03:44:35;;;;;;;0.43;0.33;;;;;;;14.70;100.00;95632.78;5114989;28;20541;-52
2022/05/01 03:47:04;;;;;;;0.40;0.37;;;;;;;14.56;100.00;95645.25;5115179;28;20506;-52
2022/05/01 03:49:33;;;;;;;0.50;0.40;;;;;;;14.20;100.00;95625.38;5115029;28;20537;-52
2022/05/01 03:52:01;;;;;;;0.50;0.43;;;;;;;14.48;100.00;95645.88;5114824;28;20463;-52
2022/05/01 03:54:31;;;;;;;0.40;0.30;;;;;;;14.72;100.00;95644.00;5114806;28;20528;-52
2022/05/01 03:56:59;;;;;;;0.40;0.37;;;;;;;14.82;100.00;95641.19;5114975;28;20969;-52
2022/05/01 03:59:29;;;;;;;0.40;0.30;;;;;;;14.85;100.00;95626.47;5114892;28;20796;-52
2022/05/01 04:01:57;;;;;;;0.70;0.70;;;;;;;15.05;100.00;95650.97;5115064;28;20515;-52
2022/05/01 04:04:26;;;;;;;0.57;0.57;;;;;;;15.00;100.00;95636.94;5114803;28;20502;-52
2022/05/01 04:06:57;;;;;;;0.40;0.30;;;;;;;15.28;100.00;95660.00;5114597;28;20435;-52
2022/05/01 04:09:27;;;;;;;0.40;0.30;;;;;;;15.14;100.00;95656.47;5114529;28;20511;-52
2022/05/01 04:11:56;;;;;;;3.60;0.40;;;;;;;15.09;100.00;95660.00;5114805;28;20469;-52
2022/05/01 04:14:25;;;;;;;0.70;0.70;;;;;;;15.27;100.00;95663.75;5114399;28;20495;-53
2022/05/01 04:16:56;;;;;;;0.50;0.30;;;;;;;15.34;100.00;95666.84;5114408;28;21008;-53
2022/05/01 04:19:25;;;;;;;0.40;0.20;;;;;;;15.33;100.00;95667.16;5114707;28;20502;-53
2022/05/01 04:21:55;;;;;;;0.40;0.30;;;;;;;15.03;100.00;95665.69;5114324;28;20929;-53
2022/05/01 04:24:23;;;;;;;0.40;0.30;;;;;;;15.22;100.00;95672.66;5114241;28;20505;-52
2022/05/01 04:26:53;;;;;;;0.40;0.30;;;;;;;15.20;100.00;95672.13;5114325;28;20459;-53
2022/05/01 04:29:39;;;;;;;0.40;0.40;;;;;;;15.11;100.00;95671.19;5114035;28;20479;-52
2022/05/01 04:32:08;;;;;;;0.50;0.43;;;;;;;15.12;100.00;95670.13;5114171;28;20427;-52
2022/05/01 04:34:37;;;;;;;0.50;0.30;;;;;;;15.15;100.00;95653.50;5113980;28;20482;-52
2022/05/01 04:37:07;;;;;;;0.50;0.30;;;;;;;15.15;100.00;95671.41;5114015;28;20506;-52
2022/05/01 04:39:35;;;;;;;0.80;0.80;;;;;;;15.20;100.00;95666.78;5114289;28;20602;-52
2022/05/01 04:42:04;;;;;;;0.50;0.50;;;;;;;15.17;100.00;95670.06;5113917;28;20925;-52
2022/05/01 04:44:34;;;;;;;2.23;0.33;;;;;;;14.72;100.00;95657.31;5113770;28;20567;-52
2022/05/01 04:47:03;;;;;;;0.40;0.30;;;;;;;14.78;100.00;95677.50;5113924;28;21060;-52
2022/05/01 04:49:31;;;;;;;0.40;0.30;;;;;;;14.63;100.00;95677.69;5113595;28;20463;-52
2022/05/01 04:52:00;;;;;;;0.40;0.30;;;;;;;14.46;100.00;95672.03;5113820;28;20508;-52
2022/05/01 04:54:29;;;;;;;0.40;0.30;;;;;;;14.41;100.00;95670.22;5113609;28;20510;-52
2022/05/01 04:57:06;;;;;;;0.70;0.70;;;;;;;14.47;100.00;95678.97;5113790;28;20447;-52
2022/05/01 04:59:36;;;;;;;0.43;0.37;;;;;;;14.82;100.00;95680.41;5113210;28;20459;-52
2022/05/01 05:02:05;;;;;;;0.77;0.77;;;;;;;14.46;100.00;95677.38;5113028;28;20459;-52
2022/05/01 05:04:33;;;;;;;3.80;0.50;;;;;;;14.67;100.00;95680.59;5112462;28;20968;-52
2022/05/01 05:07:02;;;;;;;0.40;0.27;;;;;;;14.62;100.00;95679.56;5113655;28;20450;-52
2022/05/01 05:12:16;;;;;;;0.30;0.20;;;;;;;15.17;100.00;95677.25;5113277;28;20457;-52
2022/05/01 05:14:49;;;;;;;0.70;0.70;;;;;;;15.27;100.00;95680.59;5113336;28;20554;-52
2022/05/01 05:17:18;;;;;;;0.70;0.47;;;;;;;15.57;100.00;95679.34;5113135;28;20463;-52
2022/05/01 05:19:47;;;;;;;0.40;0.30;;;;;;;16.02;100.00;95677.78;5113043;28;20564;-52
2022/05/01 05:22:16;;;;;;;1.23;1.23;;;;;;;15.44;100.00;95680.06;5113104;28;20431;-52
2022/05/01 05:24:45;;;;;;;0.50;0.30;;;;;;;15.65;100.00;95675.22;5112986;28;20967;-52
2022/05/01 05:27:14;;;;;;;0.43;0.30;;;;;;;15.70;100.00;95675.13;5113053;28;20456;-52
2022/05/01 05:29:42;;;;;;;0.60;0.60;;;;;;;15.73;100.00;95664.66;5112822;28;20440;-52
2022/05/01 05:32:12;;;;;;;0.30;0.30;;;;;;;16.01;100.00;95668.19;5112899;28;20941;-53
2022/05/01 05:34:41;;;;;;;0.40;0.40;;;;;;;16.06;100.00;95668.13;5112856;28;20558;-52
2022/05/01 05:37:09;;;;;;;2.40;1.53;;;;;;;15.92;100.00;95675.28;5112942;28;20427;-52
2022/05/01 05:39:38;;;;;;;0.50;0.40;;;;;;;16.30;100.00;95652.69;5112705;28;20463;-52
2022/05/01 05:42:07;;;;;;;0.50;0.40;;;;;;;16.24;96.85;95671.81;5112752;28;20526;-52
2022/05/01 05:44:35;;;;;;;2.30;0.60;;;;;;;16.56;95.75;95666.38;5112451;28;20542;-52
2022/05/01 05:47:04;;;;;;;0.70;0.70;;;;;;;16.81;93.43;95670.44;5112667;28;20415;-52
2022/05/01 05:49:34;;;;;;;6.93;1.03;;;;;;;17.24;89.27;95666.28;5112562;28;20478;-53
2022/05/01 05:52:03;;;;;;;0.40;0.30;;;;;;;17.37;85.23;95667.31;5112860;28;20467;-53
2022/05/01 05:54:32;;;;;;;1.47;0.93;;;;;;;16.76;92.21;95668.66;5112461;28;20558;-52
2022/05/01 05:57:00;;;;;;;2.10;1.10;;;;;;;16.20;95.76;95586.00;5112510;28;20477;-53
2022/05/01 05:59:29;;;;;;;2.37;0.93;;;;;;;17.43;90.25;95666.13;5112475;28;20463;-53
2022/05/01 06:01:57;;;;;;;0.53;0.53;;;;;;;17.97;82.35;95660.53;5112309;28;20477;-53
2022/05/01 06:04:26;;;;;;;0.40;0.30;;;;;;;17.89;82.58;95669.31;5111711;28;20428;-53
2022/05/01 06:06:56;;;;;;;1.47;1.37;;;;;;;17.00;89.19;95669.19;5111729;28;20459;-53
2022/05/01 06:09:24;;;;;;;0.70;0.50;;;;;;;17.32;89.21;95681.63;5111318;28;20515;-54
2022/05/01 06:11:53;;;;;;;0.70;0.70;;;;;;;17.93;82.65;95677.53;5112106;28;20514;-53
2022/05/01 06:14:21;;;;;;;0.50;0.50;;;;;;;18.10;77.43;95678.44;5112076;28;20467;-53
2022/05/01 06:16:49;;;;;;;0.60;0.40;;;;;;;18.31;74.04;95671.44;5112482;28;20415;-54
2022/05/01 06:19:18;;;;;;;0.40;0.30;;;;;;;18.32;74.39;95669.53;5112159;28;20846;-54
2022/05/01 06:21:46;;;;;;;1.53;0.57;;;;;;;17.01;80.25;95676.16;5112144;28;20466;-54
2022/05/01 06:24:16;;;;;;;1.00;0.47;;;;;;;17.03;88.32;95673.16;5112097;28;20556;-54
2022/05/01 06:26:44;;;;;;;1.43;0.60;;;;;;;16.43;90.39;95675.16;5112279;28;20484;-54
2022/05/01 06:29:13;;;;;;;0.80;0.80;;;;;;;16.65;90.42;95677.16;5112433;28;20420;-54
2022/05/01 06:31:42;;;;;;;0.43;0.40;;;;;;;17.31;82.16;95669.31;5111432;28;20427;-54
2022/05/01 06:34:11;;;;;;;1.77;1.50;;;;;;;17.56;77.98;95679.47;5110159;28;20470;-54
2022/05/01 06:36:40;;;;;;;0.83;0.67;;;;;;;18.50;73.46;95668.53;5110227;28;20842;-54
2022/05/01 06:39:09;;;;;;;1.30;1.20;;;;;;;17.96;71.93;95668.88;5109030;28;20470;-54
2022/05/01 06:41:39;;;;;;;0.40;0.30;;;;;;;17.94;74.97;95666.50;5110338;28;20511;-54
2022/05/01 06:44:07;;;;;;;0.50;0.37;;;;;;;17.78;73.07;95678.72;5110186;28;20491;-55
2022/05/01 06:46:35;;;;;;;0.80;0.80;;;;;;;17.68;71.13;95679.72;5110418;28;20503;-54
2022/05/01 06:49:05;;;;;;;0.50;0.37;;;;;;;18.41;70.77;95675.75;5111220;28;20434;-55
2022/05/01 06:51:34;;;;;;;2.10;1.47;;;;;;;19.39;67.00;95674.28;5111439;28;20455;-56
2022/05/01 06:54:03;;;;;;;0.53;0.40;;;;;;;19.18;62.60;95672.47;5111517;28;20451;-54
2022/05/01 06:56:31;;;;;;;0.40;0.33;;;;;;;20.15;60.14;95669.94;5111460;28;20538;-55
2022/05/01 06:59:01;;;;;;;0.70;0.40;;;;;;;19.95;57.80;95676.00;5111392;28;20506;-56
2022/05/01 07:01:29;;;;;;;1.80;0.80;;;;;;;19.72;58.78;95674.59;5111160;28;20908;-56
2022/05/01 07:03:58;;;;;;;0.60;0.60;;;;;;;18.98;57.38;95655.88;5111408;28;20420;-57
2022/05/01 07:06:26;;;;;;;0.60;0.47;;;;;;;19.57;58.25;95673.19;5111343;28;20438;-55
2022/05/01 07:08:54;;;;;;;0.50;0.50;;;;;;;19.48;53.74;95661.63;5111335;28;20459;-57
2022/05/01 07:11:23;;;;;;;1.80;0.67;;;;;;;20.03;53.91;95650.19;5111123;28;20450;-56
2022/05/01 07:13:51;;;;;;;0.73;0.63;;;;;;;20.43;54.59;95604.94;5111292;28;20540;-56
2022/05/01 07:16:22;;;;;;;0.40;0.40;;;;;;;20.42;55.69;95657.19;5110758;28;20481;-58
2022/05/01 07:18:50;;;;;;;0.60;0.60;;;;;;;20.79;48.88;95677.97;5110845;28;20451;-57
2022/05/01 07:21:19;;;;;;;0.40;0.30;;;;;;;22.13;45.60;95632.53;5111064;28;20476;-58
2022/05/01 07:23:47;;;;;;;0.70;0.50;;;;;;;22.17;46.98;95661.53;5110930;28;20453;-59
2022/05/01 07:26:18;;;;;;;0.50;0.40;;;;;;;22.77;47.75;95641.97;5111631;28;20490;-59
2022/05/01 07:28:46;;;;;;;0.87;0.73;;;;;;;22.85;40.45;95655.34;5114606;28;20937;-59
2022/05/01 07:31:14;;;;;;;0.47;0.37;;;;;;;23.25;41.56;95647.31;5114829;28;20488;-59
2022/05/01 07:33:44;;;;;;;1.17;1.17;;;;;;;21.65;41.43;95645.84;5114424;28;20937;-58
2022/05/01 07:36:13;;;;;;;0.43;0.40;;;;;;;21.06;42.04;95612.84;5114364;28;20550;-57
2022/05/01 07:38:41;;;;;;;0.50;0.40;;;;;;;22.24;43.71;95645.59;5114711;28;20502;-58
2022/05/01 07:41:09;;;;;;;0.50;0.50;;;;;;;22.19;44.78;95646.56;5114769;28;20870;-57
2022/05/01 07:43:38;;;;;;;0.83;0.83;;;;;;;22.16;43.80;95639.16;5114291;28;20933;-58
2022/05/01 07:46:07;;;;;;;0.40;0.30;;;;;;;22.32;41.39;95637.38;5114676;28;20522;-58
2022/05/01 07:48:35;;;;;;;0.40;0.30;;;;;;;21.72;42.50;95645.28;5114323;28;20522;-58
2022/05/01 07:51:05;;;;;;;0.40;0.40;;;;;;;22.17;44.59;95651.53;5114609;28;20415;-58
2022/05/01 07:53:34;;;;;;;0.50;0.30;;;;;;;21.65;44.10;95645.03;5114514;28;20443;-58
2022/05/01 07:56:03;;;;;;;0.40;0.30;;;;;;;22.33;42.40;95638.19;5114066;28;20506;-57
2022/05/01 07:58:31;;;;;;;0.50;0.40;;;;;;;22.06;41.36;95632.25;5114042;28;20426;-58
2022/05/01 08:01:01;;;;;;;6.67;0.97;;;;;;;22.28;40.09;95635.69;5114213;28;20419;-57
2022/05/01 08:06:17;;;;;;;0.70;0.40;;;;;;;23.56;37.27;95630.44;5113675;28;20964;-57
2022/05/01 08:08:45;;;;;;;0.40;0.30;;;;;;;24.41;36.10;95617.28;5113864;28;20478;-57
2022/05/01 08:11:13;;;;;;;0.40;0.30;;;;;;;25.06;37.03;95624.69;5113828;28;20451;-58
2022/05/01 08:13:42;;;;;;;0.37;0.30;;;;;;;23.69;36.99;95602.19;5114307;28;20443;-57
2022/05/01 08:16:10;;;;;;;0.50;0.40;;;;;;;22.48;34.52;95562.69;5113712;28;20498;-57
2022/05/01 08:21:28;;;;;;;0.63;0.40;;;;;;;23.26;34.00;95611.00;5079602;28;20479;-56
2022/05/01 08:23:56;;;;;;;0.63;0.43;;;;;;;23.75;36.09;95614.38;5113400;28;20419;-57
2022/05/01 08:26:25;;;;;;;0.97;0.43;;;;;;;23.97;37.20;95581.31;5113414;28;20500;-57
2022/05/01 08:28:54;;;;;;;0.50;0.40;;;;;;;23.11;34.56;95609.00;5113663;28;20455;-57
2022/05/01 08:31:23;;;;;;;0.50;0.40;;;;;;;23.54;34.21;95601.03;5113694;28;20424;-57
2022/05/01 08:33:51;;;;;;;0.93;0.83;;;;;;;23.73;35.54;95595.75;5113342;28;20424;-56
2022/05/01 08:36:20;;;;;;;0.50;0.40;;;;;;;24.23;35.67;95583.53;5113340;28;20554;-56
2022/05/01 08:38:50;;;;;;;0.63;0.63;;;;;;;23.87;35.64;95581.81;5112271;28;20507;-57
2022/05/01 08:41:18;;;;;;;0.40;0.30;;;;;;;23.52;35.33;95592.47;5113210;28;20503;-57
2022/05/01 08:43:46;;;;;;;0.90;0.70;;;;;;;22.92;37.20;95595.31;5112994;28;20889;-56
2022/05/01 08:46:39;;;;;;;0.40;0.20;;;;;;;24.31;34.07;95574.47;5113165;28;20480;-57
2022/05/01 08:49:09;;;;;;;0.50;0.33;;;;;;;23.82;33.38;95584.78;5113436;28;20486;-57
2022/05/01 08:51:40;;;;;;;0.83;0.70;;;;;;;22.84;33.33;95590.81;5113036;28;20889;-57
2022/05/01 08:54:12;;;;;;;0.43;0.40;;;;;;;23.77;31.95;95582.31;5113269;28;20427;-56
2022/05/01 08:56:42;;;;;;;1.50;0.40;;;;;;;24.22;31.92;95579.25;5112926;28;20509;-56
2022/05/01 08:59:11;;;;;;;0.43;0.40;;;;;;;24.92;28.74;95572.81;5112839;28;20426;-56
2022/05/01 09:01:41;;;;;;;0.70;0.30;;;;;;;24.97;26.79;95569.81;5112657;28;20424;-55
2022/05/01 09:04:12;;;;;;;0.40;0.30;;;;;;;24.77;26.55;95572.84;5112852;28;20431;-56
2022/05/01 09:06:42;;;;;;;0.43;0.37;;;;;;;24.79;26.94;95563.25;5112708;28;20511;-56
2022/05/01 09:09:17;;;;;;;0.40;0.30;;;;;;;26.64;25.19;95533.00;5112650;28;20453;-56
2022/05/01 09:14:32;;;;;;;0.40;0.40;;;;;;;26.40;26.05;95553.22;5112451;28;21010;-55
2022/05/01 09:17:19;;;;;;;15.17;0.90;;;;;;;25.37;26.29;95547.81;5112360;28;20499;-55
2022/05/01 09:19:49;;;;;;;0.60;0.40;;;;;;;24.88;25.35;95544.06;5112423;28;20423;-56
2022/05/01 09:22:20;;;;;;;0.43;0.40;;;;;;;26.33;23.92;95536.81;5112223;28;20428;-56
2022/05/01 09:24:53;;;;;;;0.40;0.40;;;;;;;25.85;26.58;95543.72;5112223;28;20416;-56
2022/05/01 09:27:29;;;;;;;1.53;0.40;;;;;;;25.36;27.65;95445.03;5112581;28;20434;-56
2022/05/01 09:30:12;;;;;;;0.50;0.40;;;;;;;25.48;25.55;95467.41;5112266;28;20484;-56
2022/05/01 09:32:42;;;;;;;5.93;0.60;;;;;;;25.92;24.17;95524.84;5112477;28;20427;-56
2022/05/01 09:35:16;;;;;;;0.50;0.40;;;;;;;26.00;25.04;95523.81;5112441;28;20451;-56
2022/05/01 09:37:45;;;;;;;4.83;0.50;;;;;;;26.05;25.84;95518.06;5112117;28;20554;-56
2022/05/01 09:40:30;;;;;;;0.30;0.20;;;;;;;26.72;26.46;95510.97;5111947;28;20514;-56
2022/05/01 09:42:58;;;;;;;0.57;0.40;;;;;;;26.36;26.38;95509.66;5111883;28;20476;-55
2022/05/01 09:45:31;;;;;;;0.83;0.83;;;;;;;25.61;28.00;95516.88;5111964;28;20436;-56
2022/05/01 09:48:20;;;;;;;0.40;0.30;;;;;;;24.79;28.56;95508.25;5112247;28;20854;-55
2022/05/01 09:50:49;;;;;;;0.40;0.30;;;;;;;25.68;29.20;95501.50;5111558;28;20428;-56
2022/05/01 09:53:17;;;;;;;0.60;0.50;;;;;;;24.98;27.43;95500.09;5111791;28;20432;-56
2022/05/01 09:56:00;;;;;;;0.63;0.37;;;;;;;26.12;27.19;95492.97;5112459;28;20423;-56
2022/05/01 09:58:33;;;;;;;0.40;0.30;;;;;;;25.54;27.21;95484.19;5111888;28;20477;-56
2022/05/01 10:01:09;;;;;;;0.40;0.30;;;;;;;24.17;28.17;95327.63;5111704;28;20933;-56
2022/05/01 10:03:41;;;;;;;0.50;0.30;;;;;;;25.77;27.84;95479.56;5111353;28;20912;-56
2022/05/01 10:06:11;;;;;;;0.40;0.30;;;;;;;26.45;27.68;95480.31;5111247;28;20434;-56
2022/05/01 10:08:42;;;;;;;0.50;0.40;;;;;;;26.35;27.46;95470.06;5111609;28;20510;-56
2022/05/01 10:11:14;;;;;;;0.83;0.67;;;;;;;26.26;29.41;95461.38;5111794;28;20522;-56
2022/05/01 10:13:44;;;;;;;0.67;0.67;;;;;;;26.30;28.88;95450.56;5111771;28;20411;-56
2022/05/01 10:16:15;;;;;;;0.40;0.40;;;;;;;25.59;30.85;95462.97;5111486;28;20510;-56
2022/05/01 10:18:50;;;;;;;0.40;0.30;;;;;;;25.38;30.28;95459.81;5111512;28;20506;-57
2022/05/01 10:21:40;;;;;;;0.97;0.97;;;;;;;25.99;29.82;95458.97;5111224;28;20441;-56
2022/05/01 10:24:08;;;;;;;0.40;0.30;;;;;;;26.53;29.14;95450.50;5111386;28;20515;-57
2022/05/01 10:26:43;;;;;;;0.37;0.27;;;;;;;26.09;26.85;95440.13;5111304;28;20419;-56
2022/05/01 10:32:20;;;;;;;0.53;0.30;;;;;;;24.26;29.03;95391.28;5111374;28;20455;-56
2022/05/01 10:32:48;;;;;;;0.60;0.30;;;;;;;23.19;29.84;95453.97;5111690;28;20526;-57
2022/05/01 10:36:22;;;;;;;0.40;0.30;;;;;;;24.23;29.31;95448.09;5111416;28;21022;-57
2022/05/01 10:39:07;;;;;;;0.50;0.50;;;;;;;23.65;30.83;95450.56;5055273;28;20530;-57
2022/05/01 10:41:43;;;;;;;0.50;0.50;;;;;;;22.97;30.81;95443.69;5111579;28;20829;-57
2022/05/01 10:44:27;;;;;;;0.63;0.63;;;;;;;22.50;31.92;95456.97;5110987;28;20558;-57
2022/05/01 10:46:55;;;;;;;0.40;0.30;;;;;;;23.28;32.68;95451.88;5111561;28;20535;-54
2022/05/01 10:49:36;;;;;;;0.40;0.30;;;;;;;23.61;31.14;95449.69;5111459;28;20862;-57
2022/05/01 10:52:21;;;;;;;0.40;0.30;;;;;;;22.94;31.07;95439.78;5111425;28;20538;-57
2022/05/01 10:54:54;;;;;;;0.40;0.40;;;;;;;23.05;32.04;95448.16;5111528;28;20443;-56
2022/05/01 10:57:27;;;;;;;0.30;0.20;;;;;;;22.94;32.19;95447.88;5111368;28;20517;-56
2022/05/01 11:00:09;;;;;;;0.40;0.30;;;;;;;22.50;31.72;95436.16;5111170;28;20420;-57
2022/05/01 11:02:40;;;;;;;0.53;0.53;;;;;;;21.60;31.37;95440.25;5114377;28;20876;-59
2022/05/01 11:05:10;;;;;;;0.60;0.50;;;;;;;21.80;32.82;95455.53;5115240;28;20511;-59
2022/05/01 11:07:41;;;;;;;0.47;0.40;;;;;;;21.60;31.70;95453.72;5115138;28;20430;-59
2022/05/01 11:10:11;;;;;;;0.40;0.20;;;;;;;22.25;32.26;95453.53;5115005;28;20451;-59
2022/05/01 11:12:43;;;;;;;0.40;0.20;;;;;;;22.31;32.57;95449.50;5115015;28;20886;-60
2022/05/01 11:15:11;;;;;;;0.50;0.33;;;;;;;22.29;32.18;95416.59;5115016;28;20431;-59
2022/05/01 11:17:57;;;;;;;0.40;0.20;;;;;;;21.67;33.10;95432.38;5114911;28;20498;-59
2022/05/01 11:20:34;;;;;;;0.40;0.30;;;;;;;22.25;32.32;95433.84;5114843;28;20424;-59
2022/05/01 11:23:29;;;;;;;0.93;0.60;;;;;;;21.79;33.60;95429.66;5114854;28;20458;-58
2022/05/01 11:26:15;;;;;;;0.50;0.30;;;;;;;20.96;34.48;95332.94;5115150;28;20455;-59
2022/05/01 11:28:55;;;;;;;0.40;0.30;;;;;;;21.18;34.08;95434.19;5114652;28;20458;-59
2022/05/01 11:31:49;;;;;;;0.53;0.53;;;;;;;21.67;33.69;95433.16;5114601;28;20872;-60
2022/05/01 11:34:54;;;;;;;0.57;0.43;;;;;;;20.49;35.83;95378.22;5114591;28;20433;-59
2022/05/01 11:37:24;;;;;;;0.50;0.50;;;;;;;20.59;36.16;95426.31;5114475;28;20470;-59
2022/05/01 11:40:17;;;;;;;0.40;0.30;;;;;;;20.49;36.49;95343.22;5114739;28;20992;-59
2022/05/01 11:42:46;;;;;;;0.50;0.40;;;;;;;20.17;37.00;95266.69;5114751;28;20459;-58
2022/05/01 11:45:18;;;;;;;0.40;0.27;;;;;;;20.80;36.16;95421.69;5114271;28;20467;-58
2022/05/01 11:47:55;;;;;;;1.63;1.53;;;;;;;20.55;37.84;95427.28;5114387;28;20446;-58
2022/05/01 11:50:27;;;;;;;0.40;0.30;;;;;;;20.78;38.45;95415.06;5114347;28;20520;-58
2022/05/01 11:52:56;;;;;;;0.40;0.33;;;;;;;20.58;38.22;95391.63;5114215;28;20479;-58
2022/05/01 12:03:43;;;;;;;0.43;0.37;;;;;;;21.44;37.20;95373.47;5113889;28;20430;-57
2022/05/01 12:06:23;;;;;;;0.60;0.50;;;;;;;21.68;37.05;95386.16;5113911;28;20458;-57
2022/05/01 12:08:52;;;;;;;0.40;0.30;;;;;;;21.69;37.65;95384.25;5113818;28;20451;-57
2022/05/01 12:11:28;;;;;;;0.60;0.30;;;;;;;22.02;39.49;95384.94;5114186;28;20456;-58
2022/05/01 12:14:04;;;;;;;0.60;0.50;;;;;;;21.07;37.37;95385.34;5113789;28;20415;-58
2022/05/01 12:16:35;;;;;;;0.50;0.40;;;;;;;20.43;37.35;95347.25;5114000;28;20485;-58